Time;durP1;ratioP1;P1;durP2;ratioP2;P2;SDS_P1;SDS_P2;PMS_P1;PMS_P2;Temp;Humidity;BMP_temperature;BMP_pressure;BME280_temperature;BME280_humidity;BME280_pressure;Samples;Min_cycle;Max_cycle;Signal;HPM_P1;HPM_P2
2022/04/23 00:02:09;;;;;;;18.23;13.30;;;13.30;93.20;;;;;;4956890;28;20034;-79
2022/04/23 00:04:35;;;;;;;18.58;12.38;;;13.30;93.20;;;;;;4974183;28;20545;-79
2022/04/23 00:07:01;;;;;;;14.75;12.30;;;13.30;93.30;;;;;;4973955;28;20038;-79
2022/04/23 00:09:28;;;;;;;16.15;12.27;;;13.30;93.30;;;;;;4973989;28;20045;-79
2022/04/23 00:11:55;;;;;;;16.67;12.40;;;13.30;93.30;;;;;;4973848;28;20053;-79
2022/04/23 00:14:22;;;;;;;17.65;12.90;;;13.20;93.40;;;;;;4974345;28;20464;-79
2022/04/23 00:16:51;;;;;;;18.08;12.77;;;13.20;93.70;;;;;;4973852;28;20035;-78
2022/04/23 00:19:18;;;;;;;16.73;12.55;;;13.20;93.40;;;;;;4973897;28;20034;-79
2022/04/23 00:21:44;;;;;;;18.40;12.90;;;13.20;93.60;;;;;;4956395;28;20141;-78
2022/04/23 00:24:09;;;;;;;17.43;13.10;;;13.20;93.60;;;;;;4956619;28;20542;-78
2022/04/23 00:26:35;;;;;;;19.23;12.43;;;13.20;93.60;;;;;;4973580;28;20034;-78
2022/04/23 00:29:01;;;;;;;17.75;12.98;;;13.10;93.70;;;;;;4973723;28;20257;-78
2022/04/23 00:31:27;;;;;;;16.33;12.40;;;13.10;93.70;;;;;;4973658;28;20026;-78
2022/04/23 00:33:53;;;;;;;16.50;12.23;;;13.10;93.80;;;;;;4973624;28;20031;-78
2022/04/23 00:36:23;;;;;;;17.50;12.77;;;13.10;93.80;;;;;;4973669;28;20045;-78
2022/04/23 00:38:52;;;;;;;17.67;12.77;;;13.10;93.90;;;;;;4973395;28;20438;-78
2022/04/23 00:44:04;;;;;;;16.05;12.18;;;13.00;94.00;;;;;;4973657;28;20035;-79
2022/04/23 00:46:30;;;;;;;17.50;12.63;;;13.00;94.10;;;;;;4973080;28;20473;-79
2022/04/23 00:48:58;;;;;;;18.63;13.50;;;13.00;94.20;;;;;;4973116;28;20129;-78
2022/04/23 00:51:28;;;;;;;18.15;13.55;;;13.00;94.30;;;;;;4973188;28;20053;-79
2022/04/23 00:53:54;;;;;;;16.20;12.52;;;13.00;94.40;;;;;;4973686;28;20110;-79
2022/04/23 00:56:22;;;;;;;17.60;12.40;;;13.00;94.50;;;;;;4973333;28;20035;-79
2022/04/23 00:58:49;;;;;;;17.58;13.93;;;13.00;94.60;;;;;;4973272;28;20042;-79
2022/04/23 01:01:18;;;;;;;18.07;12.53;;;13.00;94.70;;;;;;4973178;28;20484;-78
2022/04/23 01:03:44;;;;;;;17.77;14.30;;;13.00;94.70;;;;;;4955707;28;20031;-78
2022/04/23 01:06:11;;;;;;;18.13;13.10;;;12.90;94.80;;;;;;4972867;28;20479;-78
2022/04/23 01:08:38;;;;;;;15.80;13.00;;;12.90;94.90;;;;;;4972973;28;20038;-78
2022/04/23 01:11:04;;;;;;;14.70;12.52;;;12.90;95.00;;;;;;4973001;28;20042;-78
2022/04/23 01:13:30;;;;;;;17.23;13.93;;;12.90;95.00;;;;;;4972908;28;20031;-78
2022/04/23 01:16:00;;;;;;;17.37;13.53;;;12.80;95.10;;;;;;4972946;28;20038;-78
2022/04/23 01:18:26;;;;;;;17.70;14.00;;;12.80;95.20;;;;;;4972664;28;20479;-78
2022/04/23 01:20:53;;;;;;;17.90;13.93;;;12.80;95.30;;;;;;4939527;28;20072;-78
2022/04/23 01:23:20;;;;;;;17.60;13.57;;;12.80;95.40;;;;;;4972773;28;20114;-78
2022/04/23 01:25:46;;;;;;;17.17;13.60;;;12.80;95.50;;;;;;4972771;28;20106;-78
2022/04/23 01:28:15;;;;;;;16.70;12.80;;;12.70;95.50;;;;;;4972414;28;20464;-78
2022/04/23 01:30:41;;;;;;;18.00;13.35;;;12.80;95.60;;;;;;4955411;28;20067;-78
2022/04/23 01:33:06;;;;;;;18.30;13.87;;;12.80;95.60;;;;;;4972341;28;20500;-78
2022/04/23 01:35:32;;;;;;;17.23;13.40;;;12.70;95.70;;;;;;4972523;28;20031;-78
2022/04/23 01:37:58;;;;;;;18.10;13.43;;;12.70;96.00;;;;;;4972297;28;20023;-78
2022/04/23 01:40:24;;;;;;;17.43;12.60;;;12.70;95.80;;;;;;4972316;28;20105;-78
2022/04/23 01:42:49;;;;;;;16.00;12.80;;;12.70;95.80;;;;;;4972283;28;20038;-78
2022/04/23 01:45:15;;;;;;;16.77;13.23;;;12.70;95.90;;;;;;4972370;28;20027;-78
2022/04/23 01:47:41;;;;;;;18.50;13.03;;;12.70;96.00;;;;;;4954548;28;20039;-78
2022/04/23 01:50:08;;;;;;;18.73;13.80;;;12.70;96.00;;;;;;4972263;28;20559;-79
2022/04/23 01:52:33;;;;;;;16.43;13.07;;;12.70;96.10;;;;;;4972241;28;20385;-79
2022/04/23 01:54:59;;;;;;;19.43;14.27;;;12.70;96.20;;;;;;4955178;28;20118;-79
2022/04/23 01:57:25;;;;;;;19.23;14.67;;;12.60;96.30;;;;;;4972226;28;20035;-79
2022/04/23 01:59:50;;;;;;;21.03;15.00;;;12.60;96.40;;;;;;4971963;28;20038;-79
2022/04/23 02:02:17;;;;;;;21.53;15.00;;;12.60;96.50;;;;;;4971935;28;20034;-79
2022/04/23 02:04:42;;;;;;;20.93;15.47;;;12.60;96.70;;;;;;4972307;28;20034;-79
2022/04/23 02:07:08;;;;;;;20.10;15.10;;;12.60;96.80;;;;;;4971897;28;20411;-79
2022/04/23 02:09:34;;;;;;;19.70;14.90;;;12.60;97.00;;;;;;4954499;28;20498;-78
2022/04/23 02:12:00;;;;;;;20.67;15.50;;;12.60;97.10;;;;;;4971988;28;20035;-79
2022/04/23 02:14:26;;;;;;;19.73;15.03;;;12.60;97.20;;;;;;4972153;28;20034;-78
2022/04/23 02:16:52;;;;;;;21.20;16.17;;;12.60;97.30;;;;;;4971694;28;20054;-79
2022/04/23 02:19:17;;;;;;;22.13;16.43;;;12.60;97.40;;;;;;4971901;28;20054;-78
2022/04/23 02:21:44;;;;;;;20.67;16.20;;;12.60;97.50;;;;;;4972044;28;20054;-79
2022/04/23 02:24:10;;;;;;;22.00;16.40;;;12.50;97.60;;;;;;4971905;28;20090;-78
2022/04/23 02:26:36;;;;;;;20.97;16.27;;;12.50;97.70;;;;;;4972198;28;20030;-78
2022/04/23 02:29:02;;;;;;;24.50;18.30;;;12.60;97.80;;;;;;4971701;28;20135;-79
2022/04/23 02:31:27;;;;;;;25.57;18.30;;;12.60;97.90;;;;;;4972172;28;20031;-79
2022/04/23 02:33:53;;;;;;;23.87;17.63;;;12.60;98.00;;;;;;4971840;28;20027;-79
2022/04/23 02:36:20;;;;;;;29.13;18.83;;;12.60;98.20;;;;;;4971934;28;20034;-79
2022/04/23 02:38:51;;;;;;;26.60;19.63;;;12.60;98.20;;;;;;4971503;28;20400;-78
2022/04/23 02:41:17;;;;;;;28.57;20.47;;;12.50;98.30;;;;;;4971850;28;20454;-79
2022/04/23 02:43:45;;;;;;;27.33;20.20;;;12.60;98.70;;;;;;4954295;28;20566;-78
2022/04/23 02:46:15;;;;;;;27.73;19.77;;;12.50;98.50;;;;;;4971658;28;20034;-79
2022/04/23 02:48:41;;;;;;;29.47;21.37;;;12.50;98.60;;;;;;4971258;28;20041;-79
2022/04/23 02:51:07;;;;;;;29.67;21.33;;;12.50;98.70;;;;;;4954450;28;20066;-79
2022/04/23 02:53:34;;;;;;;27.50;21.07;;;12.50;98.70;;;;;;4954324;28;20058;-79
2022/04/23 02:56:02;;;;;;;25.80;19.97;;;12.50;98.80;;;;;;4971599;28;20101;-79
2022/04/23 02:58:28;;;;;;;27.52;21.65;;;12.50;98.80;;;;;;4954040;28;20035;-78
2022/04/23 03:00:54;;;;;;;28.20;21.33;;;12.50;98.90;;;;;;4954271;28;20627;-79
2022/04/23 03:03:21;;;;;;;29.47;21.80;;;12.40;98.90;;;;;;4971399;28;20039;-79
2022/04/23 03:05:47;;;;;;;27.43;20.67;;;12.50;98.90;;;;;;4954231;28;20027;-79
2022/04/23 03:08:13;;;;;;;27.10;20.83;;;12.50;99.00;;;;;;4971224;28;20027;-79
2022/04/23 03:10:39;;;;;;;26.63;20.90;;;12.50;99.00;;;;;;4973128;28;20035;-79
2022/04/23 03:13:07;;;;;;;27.93;21.43;;;12.50;99.10;;;;;;4957615;28;20037;-79
2022/04/23 03:15:34;;;;;;;28.33;22.20;;;12.40;99.10;;;;;;4975159;28;20019;-79
2022/04/23 03:18:04;;;;;;;31.13;21.97;;;12.50;99.30;;;;;;4974980;28;20462;-79
2022/04/23 03:20:30;;;;;;;30.90;21.60;;;12.40;99.20;;;;;;4974945;28;20413;-78
2022/04/23 03:22:55;;;;;;;27.57;20.87;;;12.40;99.40;;;;;;4974879;28;20126;-79
2022/04/23 03:25:22;;;;;;;28.23;21.87;;;12.40;99.40;;;;;;4957643;28;20035;-79
2022/04/23 03:27:48;;;;;;;28.40;20.90;;;12.40;99.50;;;;;;4974605;28;20065;-79
2022/04/23 03:30:14;;;;;;;26.27;20.63;;;12.40;99.60;;;;;;4974921;28;20491;-79
2022/04/23 03:32:41;;;;;;;26.83;21.13;;;12.40;99.60;;;;;;4974643;28;20475;-79
2022/04/23 03:35:07;;;;;;;30.17;21.97;;;12.40;99.60;;;;;;4974666;28;20089;-79
2022/04/23 03:37:33;;;;;;;27.77;20.27;;;12.30;99.70;;;;;;4957206;28;20039;-78
2022/04/23 03:39:59;;;;;;;29.67;21.77;;;12.30;99.90;;;;;;4974034;28;20042;-78
2022/04/23 03:42:25;;;;;;;30.03;21.90;;;12.30;99.90;;;;;;4973212;28;20042;-78
2022/04/23 03:44:50;;;;;;;28.90;21.53;;;12.30;99.90;;;;;;4973424;28;20035;-79
2022/04/23 03:47:16;;;;;;;28.97;21.47;;;12.30;99.90;;;;;;4973207;28;20484;-78
2022/04/23 03:49:42;;;;;;;30.97;23.20;;;12.30;99.90;;;;;;4973292;28;20046;-79
2022/04/23 03:52:10;;;;;;;27.87;21.47;;;12.20;99.90;;;;;;4973252;28;20476;-78
2022/04/23 03:54:36;;;;;;;31.03;22.83;;;12.30;99.90;;;;;;4973218;28;20038;-78
2022/04/23 03:57:02;;;;;;;30.47;22.47;;;12.20;99.90;;;;;;4972967;28;20027;-78
2022/04/23 03:59:30;;;;;;;31.33;22.10;;;12.20;99.90;;;;;;4973040;28;20041;-79
2022/04/23 04:01:56;;;;;;;27.67;21.50;;;12.20;99.90;;;;;;4973081;28;20035;-79
2022/04/23 04:04:22;;;;;;;29.97;22.20;;;12.10;99.90;;;;;;4973236;28;20034;-78
2022/04/23 04:06:48;;;;;;;30.77;21.93;;;12.10;99.90;;;;;;4955583;28;20050;-79
2022/04/23 04:09:14;;;;;;;28.70;21.40;;;12.10;99.90;;;;;;4972810;28;20113;-78
2022/04/23 04:12:12;;;;;;;32.03;24.43;;;12.10;99.90;;;;;;4972887;28;20033;-79
2022/04/23 04:14:36;;;;;;;30.37;21.50;;;12.10;99.90;;;;;;4953243;28;20035;-79
2022/04/23 04:17:06;;;;;;;29.40;22.30;;;12.10;99.90;;;;;;4972975;28;20165;-79
2022/04/23 04:19:33;;;;;;;27.60;21.03;;;12.10;99.90;;;;;;4955480;28;20418;-79
2022/04/23 04:22:02;;;;;;;29.20;21.97;;;12.10;99.90;;;;;;4954746;28;20041;-79
2022/04/23 04:24:28;;;;;;;25.85;20.52;;;12.00;99.90;;;;;;4972923;28;20037;-79
2022/04/23 04:26:54;;;;;;;29.27;21.37;;;12.10;99.90;;;;;;4972869;28;20039;-79
2022/04/23 04:29:20;;;;;;;28.20;21.37;;;12.10;99.90;;;;;;4955320;28;20030;-79
2022/04/23 04:31:49;;;;;;;30.57;21.23;;;12.10;99.90;;;;;;4972602;28;20023;-79
2022/04/23 04:34:20;;;;;;;30.33;22.55;;;12.00;99.90;;;;;;4972644;28;20421;-79
2022/04/23 04:36:47;;;;;;;27.60;21.77;;;12.00;99.90;;;;;;4972466;28;20561;-79
2022/04/23 04:39:17;;;;;;;29.17;22.17;;;12.10;99.90;;;;;;4965612;28;147479;-79
2022/04/23 04:41:43;;;;;;;32.80;23.70;;;12.10;99.90;;;;;;4958590;28;20038;-79
2022/04/23 04:44:10;;;;;;;28.90;21.40;;;12.00;99.90;;;;;;4973544;28;20074;-79
2022/04/23 04:46:36;;;;;;;29.07;21.37;;;12.00;99.90;;;;;;4955843;28;20406;-79
2022/04/23 04:49:03;;;;;;;26.57;20.43;;;12.10;99.90;;;;;;4973180;28;20097;-79
2022/04/23 04:51:29;;;;;;;28.50;22.67;;;12.10;99.90;;;;;;4973312;28;20538;-79
2022/04/23 04:53:56;;;;;;;31.03;22.83;;;12.10;99.90;;;;;;4956000;28;20405;-79
2022/04/23 04:56:22;;;;;;;28.40;22.00;;;12.10;99.90;;;;;;4955916;28;20135;-79
2022/04/23 04:58:48;;;;;;;31.27;23.10;;;12.10;99.90;;;;;;4973082;28;20428;-79
2022/04/23 05:01:14;;;;;;;26.50;21.67;;;12.20;99.90;;;;;;4973141;28;20060;-79
2022/04/23 05:03:40;;;;;;;28.53;22.50;;;12.20;99.90;;;;;;4972976;28;20070;-78
2022/04/23 05:06:10;;;;;;;30.23;23.67;;;12.20;99.90;;;;;;4955752;28;20062;-79
2022/04/23 05:08:36;;;;;;;;;;;12.20;99.90;;;;;;4955933;28;20030;-79
2022/04/23 05:11:02;;;;;;;28.80;22.50;;;12.10;99.90;;;;;;4972946;28;19906;-79
2022/04/23 05:13:28;;;;;;;31.53;24.07;;;12.20;99.90;;;;;;4972685;28;20395;-79
2022/04/23 05:15:54;;;;;;;27.47;21.93;;;12.20;99.90;;;;;;4972902;28;20034;-79
2022/04/23 05:18:20;;;;;;;28.33;22.20;;;12.20;99.90;;;;;;4972587;28;20030;-79
2022/04/23 05:20:45;;;;;;;28.00;21.80;;;12.30;99.90;;;;;;4972801;28;20495;-78
2022/04/23 05:23:11;;;;;;;26.07;20.83;;;12.20;99.90;;;;;;4972886;28;20035;-79
2022/04/23 05:25:37;;;;;;;27.10;21.93;;;12.20;99.90;;;;;;4972792;28;20038;-78
2022/04/23 05:28:03;;;;;;;28.73;22.33;;;12.30;99.90;;;;;;4972399;28;20070;-79
2022/04/23 05:30:28;;;;;;;29.43;23.20;;;12.30;99.90;;;;;;4972459;28;20031;-79
2022/04/23 05:32:54;;;;;;;31.43;23.27;;;12.30;99.90;;;;;;4972170;28;20113;-79
2022/04/23 05:35:20;;;;;;;28.73;22.17;;;12.30;99.90;;;;;;4972114;28;20026;-79
2022/04/23 05:37:45;;;;;;;29.37;22.40;;;12.30;99.90;;;;;;4972341;28;20034;-79
2022/04/23 05:40:12;;;;;;;30.73;23.10;;;12.30;99.90;;;;;;4972259;28;20030;-78
2022/04/23 05:42:38;;;;;;;31.43;23.27;;;12.40;99.90;;;;;;4972379;28;20114;-79
2022/04/23 05:45:05;;;;;;;31.30;23.30;;;12.40;99.90;;;;;;4955066;28;20107;-79
2022/04/23 05:47:30;;;;;;;30.57;23.77;;;12.40;99.90;;;;;;4972366;28;20054;-79
2022/04/23 05:49:56;;;;;;;30.03;22.67;;;12.50;99.90;;;;;;4972160;28;20484;-79
2022/04/23 05:52:22;;;;;;;30.40;23.13;;;12.50;99.90;;;;;;4972246;28;20106;-79
2022/04/23 05:54:48;;;;;;;30.57;23.50;;;12.50;99.90;;;;;;4972329;28;20442;-78
2022/04/23 05:57:14;;;;;;;25.93;21.40;;;12.50;99.90;;;;;;4972121;28;20038;-79
2022/04/23 05:59:40;;;;;;;32.43;23.13;;;12.50;99.90;;;;;;4972145;28;20027;-78
2022/04/23 06:02:07;;;;;;;30.17;22.67;;;12.60;99.90;;;;;;4972003;28;20049;-79
2022/04/23 06:04:33;;;;;;;29.93;23.43;;;12.60;99.90;;;;;;4972147;28;20058;-78
2022/04/23 06:06:58;;;;;;;31.20;23.17;;;12.60;99.90;;;;;;4971961;28;20128;-79
2022/04/23 06:09:24;;;;;;;28.50;22.63;;;12.60;99.90;;;;;;4971819;28;20038;-79
2022/04/23 06:11:50;;;;;;;29.20;23.23;;;12.70;99.90;;;;;;4971993;28;20027;-79
2022/04/23 06:14:16;;;;;;;27.87;21.40;;;12.70;99.90;;;;;;4954741;28;20027;-79
2022/04/23 06:16:41;;;;;;;28.33;22.53;;;12.70;99.90;;;;;;4971687;28;20482;-79
2022/04/23 06:19:07;;;;;;;32.58;23.50;;;12.70;99.90;;;;;;4971855;28;20027;-79
2022/04/23 06:21:33;;;;;;;29.53;23.13;;;12.80;99.90;;;;;;4954603;28;20154;-79
2022/04/23 06:23:58;;;;;;;29.80;23.53;;;12.80;99.90;;;;;;4971954;28;20038;-79
2022/04/23 06:26:25;;;;;;;30.03;24.07;;;12.70;99.90;;;;;;4971915;28;20042;-79
2022/04/23 06:28:50;;;;;;;32.43;23.90;;;12.90;99.90;;;;;;4954174;28;20549;-79
2022/04/23 06:31:16;;;;;;;28.45;22.55;;;12.90;99.90;;;;;;4971796;28;20034;-79
2022/04/23 06:33:42;;;;;;;29.83;23.70;;;12.90;99.90;;;;;;4954367;28;20030;-79
2022/04/23 06:36:11;;;;;;;29.73;23.83;;;12.90;99.90;;;;;;4971793;28;20539;-79
2022/04/23 06:38:37;;;;;;;31.42;24.33;;;13.00;99.90;;;;;;4954288;28;20042;-79
2022/04/23 06:41:03;;;;;;;30.98;23.67;;;13.00;99.60;;;;;;4971570;28;20054;-79
2022/04/23 06:43:28;;;;;;;29.53;22.00;;;13.00;99.60;;;;;;4954202;28;20039;-79
2022/04/23 06:46:01;;;;;;;29.38;21.65;;;13.00;99.50;;;;;;4956961;28;20097;-79
2022/04/23 06:48:27;;;;;;;31.03;23.13;;;13.10;99.40;;;;;;4957943;28;20439;-79
2022/04/23 06:50:53;;;;;;;28.70;22.00;;;13.20;99.40;;;;;;4958272;28;20055;-78
2022/04/23 06:53:18;;;;;;;25.20;20.00;;;13.20;99.40;;;;;;4958127;28;20089;-79
2022/04/23 06:55:44;;;;;;;27.40;21.33;;;13.20;99.20;;;;;;4958185;28;20031;-79
2022/04/23 06:58:11;;;;;;;26.40;21.88;;;13.20;99.10;;;;;;4957924;28;20046;-78
2022/04/23 07:00:40;;;;;;;27.15;22.17;;;13.30;98.90;;;;;;4975589;28;20440;-78
2022/04/23 07:03:06;;;;;;;23.67;20.35;;;13.30;98.80;;;;;;4958003;28;20035;-79
2022/04/23 07:05:32;;;;;;;27.77;22.05;;;13.30;98.70;;;;;;4958128;28;20038;-78
2022/04/23 07:08:01;;;;;;;30.92;22.38;;;13.40;98.70;;;;;;4957657;28;20030;-78
2022/04/23 07:10:28;;;;;;;29.75;22.40;;;13.40;98.60;;;;;;4957745;28;20030;-79
2022/04/23 07:12:54;;;;;;;24.20;20.17;;;13.40;98.10;;;;;;4957772;28;20031;-78
2022/04/23 07:15:21;;;;;;;27.55;22.27;;;13.40;98.10;;;;;;4942014;28;20031;-79
2022/04/23 07:17:48;;;;;;;23.88;19.60;;;13.50;98.10;;;;;;4975024;28;20027;-79
2022/04/23 07:20:16;;;;;;;25.90;20.70;;;13.50;98.20;;;;;;4975064;28;20039;-79
2022/04/23 07:24:02;;;;;;;25.95;20.05;;;13.50;98.00;;;;;;4957375;28;20481;-79
2022/04/23 07:25:36;;;;;;;23.55;19.25;;;13.60;97.70;;;;;;4974741;28;20476;-79
2022/04/23 07:28:03;;;;;;;24.33;21.35;;;13.60;97.50;;;;;;4957325;28;20031;-78
2022/04/23 07:30:29;;;;;;;24.92;20.40;;;13.70;97.40;;;;;;4974822;28;20078;-79
2022/04/23 07:32:56;;;;;;;21.60;18.48;;;13.70;97.40;;;;;;4975120;28;20042;-78
2022/04/23 07:38:25;;;;;;;24.52;18.45;;;13.80;97.30;;;;;;4974534;28;20547;-78
2022/04/23 07:40:51;;;;;;;23.50;19.42;;;13.80;96.70;;;;;;4974593;28;20043;-78
2022/04/23 07:43:18;;;;;;;23.88;19.48;;;13.80;96.40;;;;;;4941189;28;20395;-78
2022/04/23 07:45:45;;;;;;;20.83;17.70;;;13.90;96.70;;;;;;4957263;28;20476;-78
2022/04/23 07:48:13;;;;;;;25.70;20.33;;;13.90;96.50;;;;;;4974685;28;20027;-78
2022/04/23 07:50:41;;;;;;;23.98;18.92;;;13.90;96.50;;;;;;4974318;28;20066;-78
2022/04/23 07:53:09;;;;;;;27.15;20.75;;;14.00;96.40;;;;;;4974289;28;20027;-78
2022/04/23 07:55:38;;;;;;;27.57;21.40;;;14.00;96.00;;;;;;4974550;28;20031;-78
2022/04/23 07:58:05;;;;;;;27.27;20.35;;;14.00;96.10;;;;;;4973051;28;20436;-78
2022/04/23 08:00:32;;;;;;;27.23;21.17;;;14.00;96.10;;;;;;4974181;28;20101;-78
2022/04/23 08:02:58;;;;;;;27.42;20.98;;;14.10;95.90;;;;;;4956842;28;20452;-78
2022/04/23 08:05:24;;;;;;;24.38;19.30;;;14.10;95.80;;;;;;4974422;28;20093;-78
2022/04/23 08:07:50;;;;;;;24.77;20.33;;;14.10;95.80;;;;;;4973827;28;20038;-78
2022/04/23 08:10:16;;;;;;;22.95;19.05;;;14.10;95.80;;;;;;4974203;28;20027;-78
2022/04/23 08:12:42;;;;;;;22.95;19.13;;;14.10;95.90;;;;;;4973883;28;20497;-78
2022/04/23 08:15:08;;;;;;;23.48;18.88;;;14.20;95.70;;;;;;4974035;28;20042;-78
2022/04/23 08:17:34;;;;;;;22.55;18.65;;;14.30;95.60;;;;;;4973867;28;20027;-78
2022/04/23 08:20:00;;;;;;;25.70;20.25;;;14.30;95.50;;;;;;4974103;28;20035;-78
2022/04/23 08:22:26;;;;;;;24.13;19.45;;;14.30;95.40;;;;;;4973819;28;20034;-78
2022/04/23 08:24:52;;;;;;;26.10;20.50;;;14.30;95.30;;;;;;4956537;28;20391;-78
2022/04/23 08:27:17;;;;;;;25.48;20.23;;;14.40;95.40;;;;;;4956318;28;20122;-78
2022/04/23 08:32:28;;;;;;;26.52;21.05;;;14.40;95.30;;;;;;4973645;28;20031;-78
2022/04/23 08:34:53;;;;;;;27.63;20.52;;;14.40;95.30;;;;;;4956331;28;20037;-78
2022/04/23 08:37:22;;;;;;;25.75;20.33;;;14.40;95.20;;;;;;4973528;28;20065;-78
2022/04/23 08:39:48;;;;;;;27.98;22.50;;;14.40;95.50;;;;;;4973367;28;20045;-78
2022/04/23 08:42:16;;;;;;;25.05;20.20;;;14.50;95.20;;;;;;4956000;28;20201;-78
2022/04/23 08:44:45;;;;;;;33.88;22.73;;;14.50;95.20;;;;;;4973673;28;20110;-78
2022/04/23 08:47:11;;;;;;;25.83;20.67;;;14.50;95.30;;;;;;4956141;28;20041;-78
2022/04/23 08:49:42;;;;;;;29.52;23.15;;;14.50;95.20;;;;;;4956021;28;20030;-78
2022/04/23 08:52:13;;;;;;;27.50;21.38;;;14.60;95.20;;;;;;4973471;28;20211;-78
2022/04/23 08:54:39;;;;;;;25.95;21.05;;;14.60;94.90;;;;;;4955779;28;20536;-78
2022/04/23 08:57:05;;;;;;;26.23;19.88;;;14.70;94.80;;;;;;4973217;28;20384;-78
2022/04/23 08:59:31;;;;;;;25.50;21.67;;;14.70;94.80;;;;;;4973139;28;20043;-78
2022/04/23 09:01:57;;;;;;;27.65;21.95;;;14.70;94.90;;;;;;4955764;28;20130;-78
2022/04/23 09:04:23;;;;;;;22.30;19.02;;;14.80;94.80;;;;;;4973219;28;20444;-78
2022/04/23 09:06:49;;;;;;;24.13;20.48;;;14.80;94.70;;;;;;4972801;28;20042;-78
2022/04/23 09:09:17;;;;;;;28.95;22.88;;;14.80;94.70;;;;;;4972711;28;20495;-78
2022/04/23 09:11:46;;;;;;;27.33;20.55;;;14.90;94.30;;;;;;4972853;28;20114;-78
2022/04/23 09:14:28;;;;;;;27.52;21.52;;;14.90;94.40;;;;;;4955715;28;20125;-78
2022/04/23 09:25:15;;;;;;;22.73;18.40;;;15.00;94.30;;;;;;4972987;28;20031;-78
2022/04/23 09:27:43;;;;;;;21.92;17.52;;;15.10;93.70;;;;;;4972627;28;20242;-78
2022/04/23 09:30:11;;;;;;;18.60;15.05;;;15.10;93.50;;;;;;4955144;28;20041;-78
2022/04/23 09:32:37;;;;;;;20.83;16.13;;;15.10;93.40;;;;;;4955148;28;20507;-78
2022/04/23 09:35:08;;;;;;;20.48;15.52;;;15.20;93.00;;;;;;4972715;28;20374;-78
2022/04/23 09:40:21;;;;;;;20.83;13.35;;;15.20;92.40;;;;;;4972403;28;20074;-78
2022/04/23 09:43:01;;;;;;;16.30;12.57;;;15.30;92.00;;;;;;4972248;28;20051;-78
2022/04/23 09:45:29;;;;;;;14.95;11.10;;;15.40;91.80;;;;;;4972534;28;20080;-78
2022/04/23 09:48:04;;;;;;;14.07;10.90;;;15.40;91.70;;;;;;4954628;28;20038;-78
2022/04/23 09:50:37;;;;;;;14.35;10.45;;;15.40;91.60;;;;;;4955001;28;20018;-78
2022/04/23 09:53:10;;;;;;;16.20;11.40;;;15.50;91.30;;;;;;4972107;28;20030;-78
2022/04/23 09:55:37;;;;;;;11.65;9.20;;;15.60;90.40;;;;;;4972432;28;20027;-78
2022/04/23 09:58:09;;;;;;;13.43;9.88;;;15.70;90.40;;;;;;4972021;28;20061;-78
2022/04/23 10:00:37;;;;;;;14.25;10.23;;;15.80;90.50;;;;;;4972338;28;20046;-78
2022/04/23 10:03:07;;;;;;;13.02;10.20;;;15.80;90.10;;;;;;4954733;28;20093;-78
2022/04/23 10:05:39;;;;;;;13.98;10.32;;;15.80;90.00;;;;;;4972065;28;20046;-78
2022/04/23 10:08:12;;;;;;;12.85;10.13;;;15.80;89.50;;;;;;4954521;28;20093;-78
2022/04/23 10:10:51;;;;;;;10.93;8.85;;;15.80;89.20;;;;;;4972201;28;20033;-78
2022/04/23 10:13:20;;;;;;;13.50;10.15;;;15.80;89.20;;;;;;4954652;28;20050;-78
2022/04/23 10:15:47;;;;;;;11.70;8.95;;;15.90;88.50;;;;;;4971967;28;20039;-78
2022/04/23 10:18:14;;;;;;;11.93;8.98;;;15.90;88.30;;;;;;4971753;28;20074;-78
2022/04/23 10:20:40;;;;;;;12.85;9.65;;;15.90;88.50;;;;;;4954031;28;20410;-78
2022/04/23 10:23:24;;;;;;;13.38;10.13;;;15.90;88.00;;;;;;4971978;28;20370;-78
2022/04/23 10:26:02;;;;;;;14.60;10.52;;;15.90;88.80;;;;;;4954757;28;20073;-78
2022/04/23 10:28:28;;;;;;;15.50;10.20;;;16.00;89.00;;;;;;4971597;28;20074;-78
2022/04/23 10:31:15;;;;;;;11.80;8.88;;;16.00;88.80;;;;;;4971866;28;20027;-78
2022/04/23 10:33:46;;;;;;;13.25;8.95;;;16.00;89.00;;;;;;4971905;28;20062;-78
2022/04/23 10:36:13;;;;;;;10.63;8.50;;;16.10;88.40;;;;;;4971864;28;20114;-78
2022/04/23 10:38:45;;;;;;;11.18;8.90;;;16.20;88.10;;;;;;4971614;28;20031;-78
2022/04/23 10:41:12;;;;;;;10.88;8.52;;;16.20;87.20;;;;;;4971705;28;20065;-78
2022/04/23 10:43:52;;;;;;;12.05;8.90;;;16.20;87.10;;;;;;4971888;28;20042;-78
2022/04/23 10:46:36;;;;;;;10.93;8.50;;;16.30;86.70;;;;;;4971879;28;20031;-78
2022/04/23 10:49:15;;;;;;;10.50;7.82;;;16.40;86.60;;;;;;4971545;28;20038;-78
2022/04/23 10:51:52;;;;;;;9.90;7.82;;;16.30;86.30;;;;;;4971642;28;20094;-78
2022/04/23 10:54:21;;;;;;;9.80;7.53;;;16.40;85.70;;;;;;4954702;28;20031;-79
2022/04/23 10:56:53;;;;;;;9.73;7.22;;;16.40;85.80;;;;;;4971636;28;20106;-78
2022/04/23 10:59:44;;;;;;;9.38;7.18;;;16.40;85.00;;;;;;4971702;28;20047;-78
2022/04/23 11:02:19;;;;;;;11.10;7.55;;;16.50;85.80;;;;;;4971570;28;20058;-78
2022/04/23 11:14:07;;;;;;;10.52;7.68;;;16.60;84.10;;;;;;4961395;28;20436;-78
2022/04/23 11:16:34;;;;;;;8.75;6.20;;;16.60;84.40;;;;;;4971282;28;20031;-78
2022/04/23 11:19:01;;;;;;;10.15;7.47;;;16.60;84.30;;;;;;4971280;28;20491;-79
2022/04/23 11:21:31;;;;;;;9.15;7.32;;;16.70;83.20;;;;;;4971395;28;20030;-78
2022/04/23 11:24:02;;;;;;;10.80;7.28;;;16.70;83.20;;;;;;4954250;28;20030;-78
2022/04/23 11:26:44;;;;;;;8.43;7.03;;;16.80;82.40;;;;;;4938270;28;20438;-78
2022/04/23 11:29:11;;;;;;;9.52;6.85;;;16.70;82.60;;;;;;4971473;28;20109;-79
2022/04/23 11:31:37;;;;;;;8.45;6.93;;;16.70;82.80;;;;;;4972829;28;20051;-78
2022/04/23 11:34:04;;;;;;;9.50;7.03;;;16.70;83.20;;;;;;4974952;28;20102;-79
2022/04/23 11:36:31;;;;;;;8.98;7.25;;;16.70;83.60;;;;;;4974730;28;20050;-78
2022/04/23 11:39:00;;;;;;;9.00;6.82;;;16.90;82.70;;;;;;4974699;28;20050;-79
2022/04/23 11:41:30;;;;;;;8.35;6.40;;;16.90;82.10;;;;;;4974673;28;20081;-79
2022/04/23 11:43:57;;;;;;;9.50;6.50;;;16.90;82.00;;;;;;4974921;28;20047;-78
2022/04/23 11:46:22;;;;;;;8.52;6.75;;;16.90;81.80;;;;;;4974840;28;20031;-79
2022/04/23 11:48:49;;;;;;;9.13;6.95;;;17.00;81.70;;;;;;4974377;28;20042;-79
2022/04/23 11:51:18;;;;;;;10.30;7.55;;;17.00;81.70;;;;;;4974974;28;20027;-79
2022/04/23 11:53:49;;;;;;;11.50;7.40;;;17.10;82.10;;;;;;4974940;28;20027;-79
2022/04/23 11:56:28;;;;;;;10.00;8.20;;;17.10;82.50;;;;;;4973238;28;20058;-78
2022/04/23 11:58:56;;;;;;;11.15;8.82;;;17.10;82.50;;;;;;4974276;28;20031;-79
2022/04/23 12:01:23;;;;;;;12.07;9.13;;;17.10;82.10;;;;;;4957024;28;20126;-78
2022/04/23 12:03:51;;;;;;;14.63;9.70;;;17.20;82.50;;;;;;4941241;28;20133;-79
2022/04/23 12:06:17;;;;;;;11.13;8.73;;;17.20;82.00;;;;;;4956867;28;20041;-78
2022/04/23 12:08:42;;;;;;;11.70;9.60;;;17.20;81.30;;;;;;4956815;28;20035;-78
2022/04/23 12:11:22;;;;;;;11.93;9.27;;;17.20;80.80;;;;;;4974261;28;20031;-79
2022/04/23 12:13:48;;;;;;;13.02;9.20;;;17.20;80.80;;;;;;4973156;28;20031;-79
2022/04/23 12:16:36;;;;;;;13.70;10.18;;;17.20;80.80;;;;;;4974097;28;20082;-79
2022/04/23 12:19:13;;;;;;;12.00;8.90;;;17.20;80.90;;;;;;4973911;28;20483;-79
2022/04/23 12:21:54;;;;;;;11.40;9.27;;;17.20;81.10;;;;;;4956548;28;20046;-79
2022/04/23 12:24:34;;;;;;;13.23;9.23;;;17.20;80.50;;;;;;4974275;28;20059;-79
2022/04/23 12:27:04;;;;;;;12.07;8.88;;;17.30;80.60;;;;;;4973786;28;20117;-79
2022/04/23 12:40:57;;;;;;;11.25;9.05;;;17.50;79.00;;;;;;4974068;28;20027;-79
2022/04/23 12:43:32;;;;;;;10.82;8.52;;;17.60;77.40;;;;;;4973343;28;20027;-78
2022/04/23 12:46:08;;;;;;;11.50;8.68;;;17.60;78.40;;;;;;4973537;28;20035;-78
2022/04/23 12:48:57;;;;;;;12.25;9.45;;;17.80;78.10;;;;;;4972061;28;20373;-78
2022/04/23 12:51:23;;;;;;;12.02;8.35;;;17.90;76.80;;;;;;4973346;28;20472;-78
2022/04/23 12:53:49;;;;;;;11.02;8.60;;;17.90;77.00;;;;;;4973569;28;20033;-79
2022/04/23 12:56:16;;;;;;;14.43;11.30;;;17.90;76.10;;;;;;4973442;28;20519;-78
2022/04/23 12:58:42;;;;;;;11.68;9.00;;;18.00;75.70;;;;;;4973089;28;20034;-78
2022/04/23 13:01:09;;;;;;;10.13;8.40;;;18.00;75.80;;;;;;4973223;28;20058;-78
2022/04/23 13:03:43;;;;;;;11.20;8.27;;;18.00;75.70;;;;;;4973269;28;20039;-78
2022/04/23 13:08:57;;;;;;;14.15;8.35;;;18.00;76.00;;;;;;4936266;28;20046;-79
2022/04/23 13:11:27;;;;;;;13.18;8.20;;;18.00;76.00;;;;;;4973170;28;20170;-78
2022/04/23 13:14:00;;;;;;;10.40;7.38;;;18.10;74.20;;;;;;4973046;28;20038;-79
2022/04/23 13:16:28;;;;;;;10.60;7.80;;;18.20;74.50;;;;;;4973007;28;20158;-78
2022/04/23 13:18:59;;;;;;;9.18;7.55;;;18.20;73.90;;;;;;4972694;28;20035;-78